Time;durP1;ratioP1;P1;durP2;ratioP2;P2;SDS_P1;SDS_P2;PMS_P1;PMS_P2;Temp;Humidity;BMP_temperature;BMP_pressure;BME280_temperature;BME280_humidity;BME280_pressure;Samples;Min_cycle;Max_cycle;Signal;HPM_P1;HPM_P2
2021/03/19 00:00:25;;;;;;;;;;;;;;;16.82;36.05;99965.59;4415242;32;20021;-52
2021/03/19 00:02:52;;;;;;;;;;;;;;;16.86;36.09;99975.34;4416348;32;20364;-55
2021/03/19 00:05:18;;;;;;;;;;;;;;;16.86;36.10;99967.47;4415530;32;19995;-53
2021/03/19 00:07:43;;;;;;;;;;;;;;;16.79;36.15;99965.53;4415821;32;20335;-53
2021/03/19 00:10:09;;;;;;;;;;;;;;;16.81;36.14;99966.47;4412414;32;19947;-51
2021/03/19 00:12:35;;;;;;;;;;;;;;;16.74;36.28;99972.47;4416466;32;20347;-52
2021/03/19 00:15:01;;;;;;;;;;;;;;;16.76;36.34;99970.75;4415797;32;19977;-52
2021/03/19 00:17:27;;;;;;;;;;;;;;;16.80;36.18;99958.56;4399751;32;19981;-54
2021/03/19 00:19:53;;;;;;;;;;;;;;;16.74;36.25;99961.94;4416024;32;19991;-54
2021/03/19 00:22:19;;;;;;;;;;;;;;;16.77;36.22;99962.00;4415673;32;20361;-53
2021/03/19 00:24:45;;;;;;;;;;;;;;;16.79;36.22;99960.28;4415635;32;20008;-54
2021/03/19 00:27:11;;;;;;;;;;;;;;;16.71;36.33;99960.12;4414851;32;19953;-53
2021/03/19 00:29:37;;;;;;;;;;;;;;;16.77;36.26;99955.84;4415459;32;20338;-53
2021/03/19 00:32:03;;;;;;;;;;;;;;;16.78;36.34;99953.25;4412437;32;20368;-50
2021/03/19 00:34:29;;;;;;;;;;;;;;;16.73;36.35;99954.91;4415730;32;19951;-54
2021/03/19 00:36:55;;;;;;;;;;;;;;;16.73;36.38;99954.91;4415673;32;20009;-50
2021/03/19 00:39:21;;;;;;;;;;;;;;;16.71;36.32;99953.97;4415584;32;19974;-52
2021/03/19 00:41:46;;;;;;;;;;;;;;;16.77;36.24;99951.47;4412293;32;19993;-53
2021/03/19 00:44:12;;;;;;;;;;;;;;;16.75;36.27;99947.03;4415177;32;20003;-50
2021/03/19 00:46:38;;;;;;;;;;;;;;;16.69;36.32;99953.06;4415087;32;20450;-53
2021/03/19 00:49:04;;;;;;;;;;;;;;;16.54;36.63;99951.88;4415589;32;19981;-54
2021/03/19 00:51:30;;;;;;;;;;;;;;;16.52;36.74;99953.59;4415541;32;19958;-52
2021/03/19 00:53:56;;;;;;;;;;;;;;;16.39;36.96;99955.06;4415087;32;20563;-54
2021/03/19 00:56:22;;;;;;;;;;;;;;;16.40;36.96;99961.22;4415020;32;19954;-51
2021/03/19 00:58:48;;;;;;;;;;;;;;;16.40;37.00;99953.31;4415190;32;19968;-52
2021/03/19 01:01:13;;;;;;;;;;;;;;;16.46;36.87;99944.69;4414888;32;20349;-52
2021/03/19 01:03:39;;;;;;;;;;;;;;;16.47;36.80;99947.34;4414971;32;19954;-54
2021/03/19 01:06:06;;;;;;;;;;;;;;;16.52;36.68;99950.97;4415100;32;19965;-52
2021/03/19 01:08:32;;;;;;;;;;;;;;;16.40;36.98;99950.69;4410883;32;20778;-54
2021/03/19 01:10:58;;;;;;;;;;;;;;;16.47;36.81;99956.97;4414612;32;20020;-53
2021/03/19 01:13:24;;;;;;;;;;;;;;;16.57;36.64;99959.81;4413394;32;19958;-54
2021/03/19 01:15:51;;;;;;;;;;;;;;;16.53;36.67;99960.63;4415025;32;19954;-53
2021/03/19 01:18:17;;;;;;;;;;;;;;;16.47;36.85;99955.22;4414433;32;19957;-52
2021/03/19 01:20:43;;;;;;;;;;;;;;;16.54;36.72;99953.59;4415252;32;20374;-51
2021/03/19 01:23:09;;;;;;;;;;;;;;;16.58;36.64;99950.22;4414901;32;20031;-52
2021/03/19 01:25:35;;;;;;;;;;;;;;;16.67;36.47;99955.66;4414776;32;19966;-54
2021/03/19 01:28:00;;;;;;;;;;;;;;;16.73;36.38;99952.28;4411915;32;20281;-54
2021/03/19 01:30:27;;;;;;;;;;;;;;;16.78;36.28;99948.00;4414152;32;20190;-52
2021/03/19 01:32:53;;;;;;;;;;;;;;;16.78;36.24;99953.25;4415947;32;19960;-52
2021/03/19 01:35:18;;;;;;;;;;;;;;;16.77;36.24;99956.75;4413906;32;19989;-54
2021/03/19 01:37:44;;;;;;;;;;;;;;;16.77;36.25;99956.75;4414527;32;20002;-55
2021/03/19 01:40:10;;;;;;;;;;;;;;;16.77;36.28;99955.84;4413626;32;20009;-53
2021/03/19 01:42:36;;;;;;;;;;;;;;;16.78;36.25;99957.59;4414982;32;20580;-52
2021/03/19 01:45:02;;;;;;;;;;;;;;;16.80;36.22;99950.66;4414230;32;19946;-51
2021/03/19 01:47:28;;;;;;;;;;;;;;;16.78;36.21;99948.00;4413968;32;20356;-52
2021/03/19 01:49:54;;;;;;;;;;;;;;;16.80;36.18;99951.53;4415789;32;19999;-54
2021/03/19 01:52:20;;;;;;;;;;;;;;;16.80;36.14;99956.78;4414239;32;20359;-51
2021/03/19 01:54:45;;;;;;;;;;;;;;;16.86;36.09;99956.94;4414471;32;19957;-54
2021/03/19 01:57:11;;;;;;;;;;;;;;;16.81;36.22;99962.97;4414329;32;19965;-55
2021/03/19 01:59:37;;;;;;;;;;;;;;;16.76;36.36;99964.59;4414899;32;19953;-53
2021/03/19 02:02:03;;;;;;;;;;;;;;;16.78;36.18;99963.78;4414310;32;19994;-52
2021/03/19 02:04:29;;;;;;;;;;;;;;;16.80;36.22;99961.19;4415101;32;19955;-54
2021/03/19 02:06:55;;;;;;;;;;;;;;;16.76;36.21;99968.13;4413891;32;19968;-51
2021/03/19 02:09:21;;;;;;;;;;;;;;;16.80;36.16;99976.97;4406754;32;20006;-53
2021/03/19 02:11:47;;;;;;;;;;;;;;;16.79;36.17;99973.44;4414594;32;19988;-54
2021/03/19 02:14:13;;;;;;;;;;;;;;;16.73;36.26;99975.94;4412342;32;19954;-55
2021/03/19 02:16:39;;;;;;;;;;;;;;;16.71;36.36;99978.53;4415348;32;20017;-53
2021/03/19 02:19:04;;;;;;;;;;;;;;;16.72;36.40;99971.50;4413173;32;19959;-52
2021/03/19 02:21:30;;;;;;;;;;;;;;;16.73;36.27;99983.84;4415050;32;19954;-50
2021/03/19 02:23:56;;;;;;;;;;;;;;;16.77;36.28;99971.63;4415472;32;20378;-51
2021/03/19 02:26:22;;;;;;;;;;;;;;;16.71;36.43;99968.00;4416723;32;19992;-53
2021/03/19 02:28:48;;;;;;;;;;;;;;;16.72;36.36;99972.41;4416573;32;20023;-54
2021/03/19 02:31:14;;;;;;;;;;;;;;;16.68;36.47;99977.56;4417131;32;20476;-50
2021/03/19 02:33:40;;;;;;;;;;;;;;;16.69;36.40;99968.84;4417271;32;19994;-53
2021/03/19 02:36:06;;;;;;;;;;;;;;;16.69;36.39;99971.47;4416800;32;20327;-53
2021/03/19 02:38:32;;;;;;;;;;;;;;;16.67;36.42;99975.81;4417218;32;19958;-53
2021/03/19 02:40:57;;;;;;;;;;;;;;;16.66;36.43;99974.03;4416704;32;19962;-54
2021/03/19 02:43:23;;;;;;;;;;;;;;;16.70;36.36;99966.25;4416241;32;20025;-53
2021/03/19 02:45:49;;;;;;;;;;;;;;;16.72;36.31;99968.88;4417119;32;20001;-54
2021/03/19 02:48:15;;;;;;;;;;;;;;;16.66;36.40;99974.03;4416586;32;19962;-52
2021/03/19 02:50:41;;;;;;;;;;;;;;;16.58;36.56;99968.63;4417232;32;19934;-54
2021/03/19 02:53:07;;;;;;;;;;;;;;;16.56;36.54;99968.56;4416625;32;19961;-54
2021/03/19 02:55:33;;;;;;;;;;;;;;;16.56;36.63;99972.97;4416869;32;20294;-52
2021/03/19 02:57:59;;;;;;;;;;;;;;;16.63;36.48;99971.34;4416972;32;19993;-51
2021/03/19 03:00:25;;;;;;;;;;;;;;;16.57;36.58;99964.22;4416336;32;19969;-52
2021/03/19 03:02:50;;;;;;;;;;;;;;;16.64;36.41;99974.00;4417193;32;20051;-51
2021/03/19 03:05:16;;;;;;;;;;;;;;;16.65;36.49;99980.16;4416149;32;19973;-53
2021/03/19 03:07:42;;;;;;;;;;;;;;;16.70;36.35;99971.50;4416300;32;20467;-54
2021/03/19 03:10:08;;;;;;;;;;;;;;;16.62;36.49;99978.31;4415934;32;20027;-52
2021/03/19 03:12:34;;;;;;;;;;;;;;;16.65;36.40;99982.78;4416633;32;20052;-52
2021/03/19 03:15:00;;;;;;;;;;;;;;;16.64;36.43;99986.25;4415324;32;19962;-51
2021/03/19 03:17:26;;;;;;;;;;;;;;;16.66;36.36;99987.19;4416528;32;20000;-53
2021/03/19 03:19:51;;;;;;;;;;;;;;;16.65;36.37;99982.78;4416066;32;20033;-54
2021/03/19 03:22:17;;;;;;;;;;;;;;;16.66;36.37;99979.28;4416782;32;19950;-50
2021/03/19 03:24:43;;;;;;;;;;;;;;;16.67;36.39;99981.06;4416503;32;19961;-54
2021/03/19 03:27:09;;;;;;;;;;;;;;;16.50;36.61;99978.97;4415683;32;19995;-50
2021/03/19 03:29:35;;;;;;;;;;;;;;;16.46;36.70;99981.50;4417261;32;20346;-54
2021/03/19 03:32:01;;;;;;;;;;;;;;;16.38;36.85;99989.19;4416959;32;19946;-53
2021/03/19 03:34:27;;;;;;;;;;;;;;;16.42;36.82;99985.78;4415606;32;19954;-54
2021/03/19 03:36:53;;;;;;;;;;;;;;;16.33;36.88;99975.97;4415662;32;19955;-52
2021/03/19 03:39:19;;;;;;;;;;;;;;;16.24;37.18;99987.16;4416363;32;19985;-53
2021/03/19 03:41:44;;;;;;;;;;;;;;;16.32;37.02;99984.69;4416137;32;19949;-53
2021/03/19 03:44:13;;;;;;;;;;;;;;;16.23;37.12;99985.34;4415603;32;19991;-54
2021/03/19 03:46:39;;;;;;;;;;;;;;;16.09;37.43;99992.91;4416255;32;20015;-52
2021/03/19 03:49:05;;;;;;;;;;;;;;;16.24;37.20;99995.03;4415330;32;20343;-55
2021/03/19 03:51:31;;;;;;;;;;;;;;;16.27;37.15;99992.47;4416771;32;19990;-54
2021/03/19 03:53:57;;;;;;;;;;;;;;;16.33;37.09;99996.06;4416376;32;20003;-54
2021/03/19 03:56:23;;;;;;;;;;;;;;;16.22;37.36;99998.47;4414659;32;20066;-55
2021/03/19 03:58:49;;;;;;;;;;;;;;;16.00;37.86;99997.94;4415298;32;19954;-55
2021/03/19 04:01:15;;;;;;;;;;;;;;;15.95;38.04;100005.69;4416276;32;19968;-50
2021/03/19 04:03:41;;;;;;;;;;;;;;;15.83;38.25;100011.53;4414704;32;20006;-54
2021/03/19 04:06:07;;;;;;;;;;;;;;;15.67;38.65;100010.22;4416350;32;19950;-55
2021/03/19 04:08:32;;;;;;;;;;;;;;;15.84;38.32;100013.28;4416103;32;19968;-51
2021/03/19 04:10:58;;;;;;;;;;;;;;;15.83;38.37;100013.25;4416414;32;20000;-54
2021/03/19 04:13:25;;;;;;;;;;;;;;;15.76;38.60;100013.97;4414366;32;19965;-53
2021/03/19 04:15:51;;;;;;;;;;;;;;;15.87;38.39;100007.25;4415902;32;20000;-52
2021/03/19 04:18:17;;;;;;;;;;;;;;;15.89;38.29;100005.53;4414989;32;19953;-54
2021/03/19 04:20:42;;;;;;;;;;;;;;;15.80;38.50;100013.19;4416915;32;19958;-53
2021/03/19 04:23:08;;;;;;;;;;;;;;;15.76;38.67;100012.19;4415823;32;19993;-54
2021/03/19 04:25:34;;;;;;;;;;;;;;;15.86;38.50;100021.19;4415321;32;20310;-53
2021/03/19 04:28:00;;;;;;;;;;;;;;;15.92;38.36;100015.25;4415973;32;19990;-54
2021/03/19 04:30:26;;;;;;;;;;;;;;;15.98;38.24;100024.16;4415337;32;19973;-54
2021/03/19 04:32:52;;;;;;;;;;;;;;;15.78;38.62;100028.00;4416471;32;19969;-54
2021/03/19 04:35:18;;;;;;;;;;;;;;;15.88;38.50;100033.53;4408791;32;20000;-52
2021/03/19 04:37:44;;;;;;;;;;;;;;;15.88;38.46;100040.53;4410913;32;19988;-54
2021/03/19 04:40:10;;;;;;;;;;;;;;;15.81;38.61;100044.72;4407763;32;19992;-52
2021/03/19 04:42:36;;;;;;;;;;;;;;;15.95;38.36;100058.22;4416473;32;20374;-52
2021/03/19 04:45:02;;;;;;;;;;;;;;;15.91;38.48;100058.09;4414779;32;20019;-52
2021/03/19 04:47:27;;;;;;;;;;;;;;;15.96;38.34;100060.00;4415328;32;19964;-55
2021/03/19 04:49:53;;;;;;;;;;;;;;;15.96;38.40;100065.25;4416633;32;20008;-54
2021/03/19 04:52:19;;;;;;;;;;;;;;;15.98;38.34;100066.19;4415508;32;19934;-53
2021/03/19 04:54:45;;;;;;;;;;;;;;;16.10;38.06;100072.59;4415085;32;20016;-53
2021/03/19 04:57:11;;;;;;;;;;;;;;;16.13;37.95;100072.69;4414857;32;19977;-53
2021/03/19 04:59:37;;;;;;;;;;;;;;;16.10;38.02;100077.84;4415440;32;19970;-53
2021/03/19 05:02:03;;;;;;;;;;;;;;;16.20;37.87;100084.25;4415767;32;19962;-49
2021/03/19 05:04:29;;;;;;;;;;;;;;;16.16;37.85;100078.03;4412406;32;20368;-53
2021/03/19 05:06:57;;;;;;;;;;;;;;;16.20;37.87;100085.13;4415533;32;19994;-50
2021/03/19 05:09:22;;;;;;;;;;;;;;;16.06;38.11;100089.13;4415441;32;20035;-55
2021/03/19 05:11:48;;;;;;;;;;;;;;;16.00;38.28;100082.91;4415033;32;20385;-54
2021/03/19 05:14:14;;;;;;;;;;;;;;;16.06;38.12;100078.63;4415118;32;20378;-55
2021/03/19 05:16:40;;;;;;;;;;;;;;;16.15;37.99;100077.13;4416082;32;19976;-53
2021/03/19 05:19:06;;;;;;;;;;;;;;;15.98;38.26;100079.31;4415584;32;20365;-53
2021/03/19 05:21:32;;;;;;;;;;;;;;;16.00;38.29;100082.00;4414140;32;19972;-53
2021/03/19 05:23:58;;;;;;;;;;;;;;;15.92;38.50;100084.44;4413105;32;20433;-54
2021/03/19 05:26:24;;;;;;;;;;;;;;;16.08;38.17;100084.81;4414635;32;19966;-50
2021/03/19 05:28:50;;;;;;;;;;;;;;;16.19;37.91;100078.09;4415938;32;20001;-51
2021/03/19 05:31:16;;;;;;;;;;;;;;;16.12;38.06;100078.81;4414351;32;19973;-53
2021/03/19 05:33:41;;;;;;;;;;;;;;;16.23;37.88;100086.94;4415669;32;19967;-53
2021/03/19 05:36:07;;;;;;;;;;;;;;;16.18;37.96;100097.34;4415680;32;19935;-51
2021/03/19 05:38:33;;;;;;;;;;;;;;;16.25;37.82;100098.37;4414349;32;20356;-51
2021/03/19 05:40:59;;;;;;;;;;;;;;;16.26;37.81;100103.69;4415262;32;19968;-54
2021/03/19 05:43:25;;;;;;;;;;;;;;;16.13;38.03;100109.47;4414834;32;20009;-52
2021/03/19 05:45:51;;;;;;;;;;;;;;;16.18;37.96;100113.09;4414402;32;20059;-51
2021/03/19 05:48:17;;;;;;;;;;;;;;;16.15;38.01;100107.78;4414424;32;19956;-53
2021/03/19 05:50:43;;;;;;;;;;;;;;;16.13;38.08;100109.47;4415853;32;19993;-54
2021/03/19 05:53:08;;;;;;;;;;;;;;;16.21;37.87;100104.41;4414919;32;19984;-55
2021/03/19 05:55:34;;;;;;;;;;;;;;;16.28;37.72;100115.13;4413790;32;20426;-54
2021/03/19 05:58:00;;;;;;;;;;;;;;;16.18;37.93;100123.59;4414335;32;19965;-53
2021/03/19 06:00:26;;;;;;;;;;;;;;;15.99;38.36;100136.28;4417368;32;19954;-54
2021/03/19 06:02:52;;;;;;;;;;;;;;;16.22;37.92;100129.84;4419545;32;20252;-55
2021/03/19 06:05:18;;;;;;;;;;;;;;;16.25;37.82;100130.81;4417848;32;19966;-52
2021/03/19 06:07:44;;;;;;;;;;;;;;;16.31;37.75;100135.34;4416234;32;19991;-55
2021/03/19 06:10:10;;;;;;;;;;;;;;;16.40;37.54;100134.66;4417243;32;20316;-52
2021/03/19 06:12:35;;;;;;;;;;;;;;;16.56;37.10;100128.94;4416997;32;20854;-54
2021/03/19 06:15:02;;;;;;;;;;;;;;;16.46;37.08;100137.44;4415866;32;19958;-54
2021/03/19 06:17:27;;;;;;;;;;;;;;;16.33;37.29;100144.12;4405042;32;19960;-53
2021/03/19 06:19:53;;;;;;;;;;;;;;;16.24;37.54;100142.16;4416370;32;20374;-54
2021/03/19 06:22:19;;;;;;;;;;;;;;;16.37;37.35;100145.97;4416097;32;20005;-53
2021/03/19 06:24:46;;;;;;;;;;;;;;;16.18;37.74;100155.13;4415689;32;19958;-55
2021/03/19 06:27:12;;;;;;;;;;;;;;;16.34;37.44;100150.25;4415137;32;19958;-53
2021/03/19 06:29:38;;;;;;;;;;;;;;;16.40;37.31;100145.19;4416806;32;20464;-54
2021/03/19 06:32:04;;;;;;;;;;;;;;;16.47;37.18;100139.22;4414410;32;19991;-56
2021/03/19 06:34:30;;;;;;;;;;;;;;;16.53;36.46;100157.78;4415378;32;19959;-53
2021/03/19 06:36:56;;;;;;;;;;;;;;;16.40;37.04;100153.94;4403707;32;19964;-53
2021/03/19 06:39:22;;;;;;;;;;;;;;;16.62;36.54;100158.87;4413982;32;19968;-54
2021/03/19 06:41:48;;;;;;;;;;;;;;;16.68;36.37;100156.38;4414201;32;19979;-55
2021/03/19 06:44:14;;;;;;;;;;;;;;;16.53;36.63;100162.13;4414140;32;19993;-52
2021/03/19 06:46:40;;;;;;;;;;;;;;;16.34;37.11;100163.41;4414633;32;20259;-54
2021/03/19 06:49:06;;;;;;;;;;;;;;;16.28;37.25;100154.53;4414945;32;19951;-54
2021/03/19 06:51:31;;;;;;;;;;;;;;;16.51;36.88;100156.84;4413195;32;19958;-54
2021/03/19 06:53:57;;;;;;;;;;;;;;;16.56;36.73;100155.22;4410067;32;20688;-54
2021/03/19 06:56:23;;;;;;;;;;;;;;;16.65;36.62;100164.19;4414759;32;20053;-55
2021/03/19 06:58:50;;;;;;;;;;;;;;;16.80;36.32;100161.06;4415234;32;19958;-54
2021/03/19 07:01:16;;;;;;;;;;;;;;;16.82;36.28;100170.72;4415709;32;20236;-54
2021/03/19 07:03:42;;;;;;;;;;;;;;;16.81;36.31;100168.97;4417203;32;20007;-54
2021/03/19 07:06:08;;;;;;;;;;;;;;;16.83;36.25;100175.13;4416071;32;19990;-54
2021/03/19 07:08:34;;;;;;;;;;;;;;;16.80;36.29;100177.69;4415089;32;19962;-55
2021/03/19 07:11:00;;;;;;;;;;;;;;;16.67;36.52;100176.53;4414504;32;20271;-54
2021/03/19 07:13:26;;;;;;;;;;;;;;;16.77;36.38;100182.00;4415902;32;19958;-53
2021/03/19 07:15:51;;;;;;;;;;;;;;;16.78;36.36;100183.75;4415956;32;19958;-54
2021/03/19 07:18:17;;;;;;;;;;;;;;;16.82;36.26;100186.50;4416259;32;19951;-55
2021/03/19 07:20:43;;;;;;;;;;;;;;;16.71;36.46;100195.88;4416829;32;19993;-52
2021/03/19 07:23:09;;;;;;;;;;;;;;;16.53;36.81;100184.06;4415584;32;19942;-55
2021/03/19 07:25:35;;;;;;;;;;;;;;;16.61;36.69;100191.28;4415985;32;19968;-52
2021/03/19 07:28:01;;;;;;;;;;;;;;;16.70;36.52;100199.34;4415914;32;20171;-55
2021/03/19 07:30:28;;;;;;;;;;;;;;;16.65;36.62;100198.38;4416320;32;20017;-54
2021/03/19 07:32:54;;;;;;;;;;;;;;;16.62;36.66;100196.53;4416283;32;20347;-53
2021/03/19 07:35:19;;;;;;;;;;;;;;;16.62;36.61;100199.19;4416333;32;19946;-54
2021/03/19 07:37:45;;;;;;;;;;;;;;;16.55;36.74;100208.66;4415819;32;20305;-54
2021/03/19 07:40:13;;;;;;;;;;;;;;;16.51;36.91;100211.16;4415496;32;19957;-54
2021/03/19 07:42:39;;;;;;;;;;;;;;;16.58;36.76;100219.22;4415893;32;19996;-50
2021/03/19 07:45:05;;;;;;;;;;;;;;;16.62;36.67;100211.44;4412497;32;20002;-53
2021/03/19 07:47:31;;;;;;;;;;;;;;;16.52;36.87;100219.09;4415497;32;19961;-54
2021/03/19 07:49:57;;;;;;;;;;;;;;;16.65;36.63;100229.91;4416482;32;19965;-55
2021/03/19 07:52:22;;;;;;;;;;;;;;;16.36;37.18;100233.56;4416114;32;20388;-54
2021/03/19 07:54:48;;;;;;;;;;;;;;;16.43;37.01;100234.63;4416065;32;20464;-54
2021/03/19 07:57:14;;;;;;;;;;;;;;;16.65;36.67;100237.81;4413888;32;19991;-52
2021/03/19 07:59:40;;;;;;;;;;;;;;;16.52;36.78;100245.38;4415832;32;20063;-52
2021/03/19 08:02:06;;;;;;;;;;;;;;;16.38;37.08;100244.13;4415673;32;19950;-55
2021/03/19 08:04:32;;;;;;;;;;;;;;;16.63;36.72;100255.28;4415679;32;19934;-55
2021/03/19 08:06:58;;;;;;;;;;;;;;;16.52;36.82;100250.63;4414818;32;19962;-54
2021/03/19 08:09:24;;;;;;;;;;;;;;;16.41;37.04;100246.84;4415279;32;20347;-54
2021/03/19 08:11:51;;;;;;;;;;;;;;;16.46;36.87;100247.84;4414752;32;19950;-55
2021/03/19 08:14:17;;;;;;;;;;;;;;;16.26;37.34;100261.34;4415390;32;20002;-54
2021/03/19 08:16:43;;;;;;;;;;;;;;;16.56;36.75;100263.00;4415390;32;19972;-54
2021/03/19 08:19:09;;;;;;;;;;;;;;;16.66;36.62;100255.38;4415341;32;20041;-53
2021/03/19 08:21:35;;;;;;;;;;;;;;;16.75;36.45;100258.22;4415370;32;20000;-55
2021/03/19 08:24:01;;;;;;;;;;;;;;;16.70;36.47;100266.00;4416430;32;20025;-54
2021/03/19 08:26:26;;;;;;;;;;;;;;;16.71;36.48;100269.50;4414074;32;19966;-54
2021/03/19 08:28:52;;;;;;;;;;;;;;;16.68;36.54;100274.69;4414575;32;19951;-54
2021/03/19 08:31:18;;;;;;;;;;;;;;;16.66;36.48;100277.28;4414484;32;20010;-55
2021/03/19 08:33:44;;;;;;;;;;;;;;;16.62;36.64;100278.06;4415392;32;19966;-53
2021/03/19 08:36:10;;;;;;;;;;;;;;;16.62;36.64;100277.19;4413781;32;19946;-54
2021/03/19 08:38:36;;;;;;;;;;;;;;;16.62;36.60;100287.69;4415073;32;20031;-54
2021/03/19 08:41:02;;;;;;;;;;;;;;;16.63;36.66;100290.34;4415664;32;19954;-55
2021/03/19 08:43:28;;;;;;;;;;;;;;;16.66;36.56;100292.19;4414588;32;20388;-56
2021/03/19 08:45:54;;;;;;;;;;;;;;;16.74;36.40;100293.28;4414763;32;19973;-54
2021/03/19 08:48:20;;;;;;;;;;;;;;;16.74;36.45;100292.38;4413786;32;20268;-54
2021/03/19 08:50:46;;;;;;;;;;;;;;;16.80;36.44;100293.41;4403977;32;19954;-55
2021/03/19 08:53:13;;;;;;;;;;;;;;;16.81;36.29;100292.56;4414783;32;20356;-55
2021/03/19 08:55:39;;;;;;;;;;;;;;;16.80;36.21;100282.03;4414364;32;20618;-56
2021/03/19 08:58:05;;;;;;;;;;;;;;;16.77;36.39;100288.09;4413313;32;19954;-54
2021/03/19 09:00:32;;;;;;;;;;;;;;;16.75;36.51;100291.50;4414158;32;19954;-56
2021/03/19 09:03:00;;;;;;;;;;;;;;;16.74;36.51;100301.16;4415326;32;19958;-53
2021/03/19 09:05:25;;;;;;;;;;;;;;;16.93;36.02;100289.38;4415012;32;19973;-53
2021/03/19 09:07:51;;;;;;;;;;;;;;;16.78;36.23;100287.22;4414555;32;19985;-53
2021/03/19 09:10:17;;;;;;;;;;;;;;;16.77;36.31;100293.34;4412961;32;19972;-56
2021/03/19 09:12:43;;;;;;;;;;;;;;;16.73;36.49;100286.25;4413878;32;20077;-56
2021/03/19 09:15:09;;;;;;;;;;;;;;;16.86;36.14;100287.44;4413102;32;19993;-55
2021/03/19 09:17:35;;;;;;;;;;;;;;;16.79;36.28;100296.91;4414373;32;20391;-56
2021/03/19 09:20:02;;;;;;;;;;;;;;;16.78;36.27;100303.00;4415043;32;19976;-55
2021/03/19 09:22:28;;;;;;;;;;;;;;;16.90;36.27;100309.44;4413991;32;20001;-55
2021/03/19 09:24:54;;;;;;;;;;;;;;;16.98;35.95;100310.53;4415318;32;20037;-55
2021/03/19 09:27:20;;;;;;;;;;;;;;;16.88;36.20;100319.03;4413172;32;19957;-55
2021/03/19 09:29:45;;;;;;;;;;;;;;;16.94;36.06;100320.09;4414043;32;19954;-55
2021/03/19 09:32:11;;;;;;;;;;;;;;;16.97;36.04;100314.00;4413710;32;19953;-56
2021/03/19 09:34:37;;;;;;;;;;;;;;;16.90;36.17;100309.44;4413634;32;19968;-55
2021/03/19 09:37:04;;;;;;;;;;;;;;;16.89;36.18;100318.19;4413852;32;20329;-55
2021/03/19 09:39:29;;;;;;;;;;;;;;;16.84;36.39;100316.31;4415100;32;19995;-54
2021/03/19 09:41:55;;;;;;;;;;;;;;;16.97;36.05;100321.87;4414148;32;19946;-56
2021/03/19 09:44:21;;;;;;;;;;;;;;;16.95;36.10;100308.72;4413465;32;19961;-56
2021/03/19 09:46:47;;;;;;;;;;;;;;;16.94;36.17;100324.44;4413436;32;20013;-54
2021/03/19 09:49:13;;;;;;;;;;;;;;;17.07;35.94;100329.19;4414980;32;19988;-53
2021/03/19 09:51:40;;;;;;;;;;;;;;;17.08;35.73;100325.72;4414480;32;20302;-56
2021/03/19 09:54:06;;;;;;;;;;;;;;;17.03;36.07;100340.50;4411198;32;19969;-56
2021/03/19 09:56:32;;;;;;;;;;;;;;;17.11;35.74;100331.06;4414383;32;19976;-56
2021/03/19 09:58:58;;;;;;;;;;;;;;;17.19;35.86;100344.41;4411737;32;19954;-54
2021/03/19 10:01:24;;;;;;;;;;;;;;;17.14;35.70;100346.03;4413505;32;20009;-56
2021/03/19 10:03:50;;;;;;;;;;;;;;;17.12;35.75;100353.00;4414532;32;19950;-57
2021/03/19 10:06:16;;;;;;;;;;;;;;;17.02;35.79;100351.88;4413169;32;19965;-56
2021/03/19 10:08:42;;;;;;;;;;;;;;;17.04;36.01;100359.78;4412340;32;20002;-56
2021/03/19 10:11:07;;;;;;;;;;;;;;;17.11;35.68;100357.38;4413687;32;20326;-54
2021/03/19 10:13:35;;;;;;;;;;;;;;;17.13;35.85;100368.84;4413828;32;19954;-55
2021/03/19 10:16:01;;;;;;;;;;;;;;;17.08;35.83;100359.91;4413829;32;20549;-56
2021/03/19 10:18:26;;;;;;;;;;;;;;;17.22;35.62;100348.84;4414129;32;20005;-56
2021/03/19 10:20:52;;;;;;;;;;;;;;;17.24;35.86;100353.31;4414775;32;19973;-54
2021/03/19 10:23:19;;;;;;;;;;;;;;;17.28;35.65;100349.03;4414316;32;20095;-55
2021/03/19 10:25:45;;;;;;;;;;;;;;;17.29;35.59;100358.69;4413566;32;19965;-56
2021/03/19 10:28:11;;;;;;;;;;;;;;;17.25;35.56;100354.22;4411937;32;20283;-54
2021/03/19 10:30:37;;;;;;;;;;;;;;;17.10;35.64;100360.88;4413529;32;19951;-54
2021/03/19 10:33:03;;;;;;;;;;;;;;;17.22;35.77;100370.81;4414337;32;19995;-54
2021/03/19 10:35:28;;;;;;;;;;;;;;;17.26;35.33;100362.13;4413945;32;19962;-54
2021/03/19 10:37:54;;;;;;;;;;;;;;;17.23;35.54;100366.44;4414698;32;19957;-55
2021/03/19 10:40:20;;;;;;;;;;;;;;;17.27;35.29;100368.28;4414354;32;19990;-56
2021/03/19 10:42:46;;;;;;;;;;;;;;;17.29;35.47;100374.47;4413333;32;20400;-55
2021/03/19 10:45:12;;;;;;;;;;;;;;;17.25;35.66;100364.75;4413767;32;19962;-56
2021/03/19 10:47:38;;;;;;;;;;;;;;;17.36;35.36;100368.53;4415953;32;19954;-56
2021/03/19 10:50:04;;;;;;;;;;;;;;;17.46;35.53;100368.72;4417156;32;19973;-54
2021/03/19 10:52:30;;;;;;;;;;;;;;;17.38;35.51;100372.09;4415869;32;20335;-53
2021/03/19 10:54:56;;;;;;;;;;;;;;;17.48;35.48;100372.31;4416818;32;20380;-55
2021/03/19 10:57:22;;;;;;;;;;;;;;;17.41;35.34;100372.16;4415326;32;19946;-56
2021/03/19 10:59:50;;;;;;;;;;;;;;;17.30;35.24;100383.28;4415895;32;20259;-55
2021/03/19 11:02:16;;;;;;;;;;;;;;;17.32;35.42;100387.72;4413497;32;19976;-56
2021/03/19 11:04:42;;;;;;;;;;;;;;;17.41;35.15;100382.69;4416967;32;19971;-56
2021/03/19 11:07:08;;;;;;;;;;;;;;;17.34;35.40;100391.28;4415516;32;19950;-55
2021/03/19 11:09:34;;;;;;;;;;;;;;;17.38;35.33;100392.25;4416826;32;19947;-56
2021/03/19 11:11:59;;;;;;;;;;;;;;;17.36;35.11;100402.75;4416398;32;19994;-54
2021/03/19 11:14:26;;;;;;;;;;;;;;;17.31;35.17;100398.22;4415748;32;19953;-57
2021/03/19 11:16:52;;;;;;;;;;;;;;;17.38;35.06;100403.69;4409343;32;19949;-53
2021/03/19 11:19:18;;;;;;;;;;;;;;;17.40;35.16;100406.31;4416233;32;20599;-56
2021/03/19 11:21:44;;;;;;;;;;;;;;;17.28;35.28;100417.44;4416716;32;19954;-55
2021/03/19 11:24:10;;;;;;;;;;;;;;;17.35;35.10;100406.25;4415219;32;19946;-56
2021/03/19 11:26:36;;;;;;;;;;;;;;;17.37;35.36;100407.16;4416091;32;19957;-56
2021/03/19 11:29:02;;;;;;;;;;;;;;;17.45;35.48;100403.81;4415432;32;19962;-56
2021/03/19 11:31:29;;;;;;;;;;;;;;;17.40;35.15;100409.87;4416371;32;20045;-52
2021/03/19 11:33:55;;;;;;;;;;;;;;;17.45;35.27;100414.34;4416621;32;19990;-56
2021/03/19 11:36:21;;;;;;;;;;;;;;;17.45;35.38;100417.88;4403079;32;19995;-54
2021/03/19 11:38:47;;;;;;;;;;;;;;;17.54;35.38;100422.47;4415327;32;19966;-56
2021/03/19 11:41:13;;;;;;;;;;;;;;;17.50;35.13;100413.63;4415763;32;20365;-56
2021/03/19 11:43:39;;;;;;;;;;;;;;;17.47;35.47;100412.63;4415737;32;20039;-54
2021/03/19 11:46:04;;;;;;;;;;;;;;;17.13;34.60;100410.94;4410734;32;19968;-54
2021/03/19 11:48:31;;;;;;;;;;;;;;;17.28;35.18;100417.44;4399453;32;20464;-54
2021/03/19 11:50:57;;;;;;;;;;;;;;;17.19;34.60;100414.56;4415344;32;20011;-55
2021/03/19 11:53:23;;;;;;;;;;;;;;;17.29;34.88;100421.84;4414068;32;20025;-54
2021/03/19 11:55:49;;;;;;;;;;;;;;;17.36;35.11;100418.56;4413419;32;20245;-52
2021/03/19 11:58:15;;;;;;;;;;;;;;;17.13;34.12;100425.81;4414305;32;20017;-52
2021/03/19 12:00:41;;;;;;;;;;;;;;;17.23;34.99;100421.72;4399071;32;20012;-54
2021/03/19 12:03:08;;;;;;;;;;;;;;;17.27;34.60;100420.94;4412779;32;19955;-50
2021/03/19 12:05:34;;;;;;;;;;;;;;;17.37;34.31;100424.69;4413687;32;20012;-51
2021/03/19 12:08:00;;;;;;;;;;;;;;;17.37;34.43;100422.97;4414047;32;20009;-56
2021/03/19 12:10:29;;;;;;;;;;;;;;;17.48;34.88;100414.44;4413999;32;19958;-52
2021/03/19 12:12:55;;;;;;;;;;;;;;;16.83;33.70;100422.38;4402786;32;19968;-50
2021/03/19 12:15:21;;;;;;;;;;;;;;;17.06;34.20;100424.78;4411400;32;19986;-51
2021/03/19 12:17:47;;;;;;;;;;;;;;;17.28;34.09;100422.72;4414038;32;19972;-53
2021/03/19 12:20:13;;;;;;;;;;;;;;;17.34;34.01;100425.50;4412371;32;19983;-54
2021/03/19 12:22:40;;;;;;;;;;;;;;;17.34;33.47;100430.75;4413952;32;20029;-52
2021/03/19 12:25:06;;;;;;;;;;;;;;;17.26;34.08;100422.66;4413803;32;20043;-55
2021/03/19 12:27:32;;;;;;;;;;;;;;;17.38;33.61;100431.72;4414302;32;19958;-54
2021/03/19 12:29:58;;;;;;;;;;;;;;;17.34;33.73;100428.13;4415522;32;19958;-54
2021/03/19 12:32:24;;;;;;;;;;;;;;;17.42;34.27;100439.75;4414177;32;19951;-54